createdAt,value
2023-04-28T00:01:20.905Z,7.18
2023-04-28T00:04:21.154Z,7.18
2023-04-28T00:07:21.623Z,7.15
2023-04-28T00:10:21.660Z,7.13
2023-04-28T00:13:23.998Z,7.11
2023-04-28T00:16:23.863Z,7.10
2023-04-28T00:19:23.658Z,7.10
2023-04-28T00:22:23.697Z,7.07
2023-04-28T00:25:23.681Z,7.06
2023-04-28T00:28:33.677Z,7.04
2023-04-28T00:31:34.700Z,7.04
2023-04-28T00:34:35.700Z,7.03
2023-04-28T00:37:35.743Z,7.05
2023-04-28T00:40:35.715Z,7.06
2023-04-28T00:43:35.670Z,7.07
2023-04-28T00:46:35.689Z,7.07
2023-04-28T00:49:35.698Z,7.06
2023-04-28T00:52:36.913Z,7.05
2023-04-28T00:55:36.780Z,7.05
2023-04-28T00:58:36.885Z,7.03
2023-04-28T01:01:36.752Z,7.03
2023-04-28T01:04:39.777Z,7.00
2023-04-28T01:07:40.885Z,6.97
2023-04-28T01:10:40.724Z,6.95
2023-04-28T01:13:50.068Z,6.94
2023-04-28T01:16:49.950Z,6.93
2023-04-28T01:19:49.822Z,6.92
2023-04-28T01:22:49.730Z,6.89
2023-04-28T01:25:50.714Z,6.88
2023-04-28T01:28:51.766Z,6.87
2023-04-28T01:31:51.801Z,6.88
2023-04-28T01:34:53.802Z,6.89
2023-04-28T01:37:54.752Z,6.89
2023-04-28T01:40:55.826Z,6.88
2023-04-28T01:43:56.795Z,6.86
2023-04-28T01:46:57.919Z,6.84
2023-04-28T01:49:57.802Z,6.83
2023-04-28T01:52:58.774Z,6.82
2023-04-28T01:55:58.850Z,6.83
2023-04-28T01:58:58.798Z,6.82
2023-04-28T02:01:58.845Z,6.83
2023-04-28T02:05:00.251Z,6.81
2023-04-28T02:08:00.815Z,6.81
2023-04-28T02:11:00.863Z,6.80
2023-04-28T02:14:00.853Z,6.78
2023-04-28T02:17:00.890Z,6.76
2023-04-28T02:20:00.955Z,6.72
2023-04-28T02:23:00.865Z,6.70
2023-04-28T02:26:00.892Z,6.69
2023-04-28T02:29:02.882Z,6.69
2023-04-28T02:32:02.849Z,6.68
2023-04-28T02:35:05.923Z,6.66
2023-04-28T02:38:05.953Z,6.63
2023-04-28T02:41:40.903Z,6.58
2023-04-28T02:44:40.999Z,6.55
2023-04-28T02:47:41.224Z,6.53
2023-04-28T02:50:42.899Z,6.50
2023-04-28T02:53:43.870Z,6.46
2023-04-28T02:56:43.891Z,6.45
2023-04-28T02:59:43.937Z,6.44
2023-04-28T03:02:44.044Z,6.42
2023-04-28T03:05:43.907Z,6.38
2023-04-28T03:08:43.962Z,6.35
2023-04-28T03:11:43.911Z,6.31
2023-04-28T03:14:44.001Z,6.29
2023-04-28T03:17:45.039Z,6.28
2023-04-28T03:20:44.952Z,6.27
2023-04-28T03:23:44.975Z,6.23
2023-04-28T03:26:44.965Z,6.19
2023-04-28T03:29:44.940Z,6.17
2023-04-28T03:32:45.966Z,6.15
2023-04-28T03:35:45.957Z,6.13
2023-04-28T03:38:46.072Z,6.12
2023-04-28T03:41:45.989Z,6.12
2023-04-28T03:45:17.964Z,6.14
2023-04-28T03:48:25.067Z,6.15
2023-04-28T03:51:24.959Z,6.18
2023-04-28T03:54:29.032Z,6.21
2023-04-28T03:57:29.052Z,6.22
2023-04-28T04:00:29.035Z,6.20
2023-04-28T04:03:32.203Z,6.23
2023-04-28T04:06:33.224Z,6.24
2023-04-28T04:09:34.063Z,6.27
2023-04-28T04:12:34.065Z,6.33
2023-04-28T04:15:34.115Z,6.37
2023-04-28T04:18:34.030Z,6.41
2023-04-28T04:22:06.056Z,6.48
2023-04-28T04:25:06.019Z,6.54
2023-04-28T04:28:06.064Z,6.62
2023-04-28T04:31:06.292Z,6.70
2023-04-28T04:34:14.123Z,6.82
2023-04-28T04:37:14.080Z,6.95
2023-04-28T04:40:25.115Z,7.17
2023-04-28T04:43:25.072Z,7.38
2023-04-28T04:46:25.122Z,7.57
2023-04-28T04:49:25.063Z,7.73
2023-04-28T04:52:25.195Z,7.83
2023-04-28T04:55:25.085Z,7.94
2023-04-28T04:58:25.162Z,8.07
2023-04-28T05:01:37.231Z,8.11
2023-04-28T05:04:37.196Z,8.17
2023-04-28T05:07:37.106Z,8.26
2023-04-28T05:10:37.241Z,8.39
2023-04-28T05:13:37.150Z,8.54
2023-04-28T05:16:38.498Z,8.66
2023-04-28T05:19:42.234Z,8.79
2023-04-28T05:22:42.121Z,8.96
2023-04-28T05:25:42.165Z,9.05
2023-04-28T05:28:42.160Z,9.17
2023-04-28T05:31:42.224Z,9.31
2023-04-28T05:34:43.209Z,9.44
2023-04-28T05:37:44.175Z,9.52
2023-04-28T05:40:46.231Z,9.63
2023-04-28T05:43:46.174Z,9.76
2023-04-28T05:46:46.397Z,9.90
2023-04-28T05:49:52.208Z,10.34
2023-04-28T05:52:53.303Z,10.97
2023-04-28T05:55:53.211Z,11.62
2023-04-28T05:58:54.260Z,12.14
2023-04-28T06:01:56.211Z,12.44
2023-04-28T06:04:56.794Z,12.38
2023-04-28T06:08:10.241Z,12.47
2023-04-28T06:11:10.325Z,12.69
2023-04-28T06:14:10.249Z,13.11
2023-04-28T06:17:10.470Z,13.50
2023-04-28T06:20:10.270Z,13.72
2023-04-28T06:23:11.284Z,14.00
2023-04-28T06:26:13.289Z,14.23
2023-04-28T06:29:13.322Z,14.36
2023-04-28T06:32:14.437Z,14.55
2023-04-28T06:35:14.361Z,14.83
2023-04-28T06:38:14.267Z,15.04
2023-04-28T06:41:15.339Z,15.14
2023-04-28T06:48:10.018Z,16.22
2023-04-28T06:51:26.886Z,16.60
2023-04-28T06:58:10.721Z,17.07
2023-04-28T07:01:29.453Z,17.22
2023-04-28T07:04:29.393Z,17.30
2023-04-28T07:07:29.604Z,17.46
2023-04-28T07:10:29.512Z,17.65
2023-04-28T07:13:30.418Z,17.77
2023-04-28T07:16:32.355Z,17.70
2023-04-28T07:19:32.393Z,17.31
2023-04-28T07:22:32.417Z,16.94
2023-04-28T07:25:32.419Z,17.04
2023-04-28T07:28:32.441Z,17.22
2023-04-28T07:31:33.634Z,17.41
2023-04-28T07:34:59.738Z,17.81
2023-04-28T07:38:17.993Z,17.96
2023-04-28T07:45:19.419Z,18.40
2023-04-28T07:48:12.763Z,18.65
2023-04-28T07:51:12.747Z,18.58
2023-04-28T07:54:12.397Z,18.58
2023-04-28T07:57:12.471Z,18.51
2023-04-28T08:00:12.460Z,18.52
2023-04-28T08:03:12.723Z,18.91
2023-04-28T08:06:13.485Z,18.99
2023-04-28T08:09:13.475Z,18.78
2023-04-28T08:12:13.511Z,18.63
2023-04-28T08:15:13.593Z,18.56
2023-04-28T08:18:13.591Z,18.49
2023-04-28T08:21:28.474Z,18.48
2023-04-28T08:24:28.487Z,18.26
2023-04-28T08:27:31.489Z,18.03
2023-04-28T08:30:31.470Z,17.78
2023-04-28T08:33:33.587Z,17.72
2023-04-28T08:36:37.514Z,18.12
2023-04-28T08:39:41.493Z,18.48
2023-04-28T08:42:44.518Z,18.66
2023-04-28T08:45:44.532Z,18.80
2023-04-28T08:48:44.528Z,18.81
2023-04-28T08:51:46.672Z,18.70
2023-04-28T08:54:46.515Z,18.90
2023-04-28T08:57:48.680Z,19.18
2023-04-28T09:00:50.577Z,19.25
2023-04-28T09:03:50.678Z,19.19
2023-04-28T09:06:51.604Z,19.29
2023-04-28T09:09:51.550Z,19.27
2023-04-28T09:12:51.558Z,19.33
2023-04-28T09:15:52.594Z,19.51
2023-04-28T09:18:52.602Z,19.56
2023-04-28T09:22:07.777Z,19.59
2023-04-28T09:25:28.437Z,19.80
2023-04-28T09:28:36.710Z,20.06
2023-04-28T09:31:38.677Z,20.21
2023-04-28T09:34:42.412Z,19.90
2023-04-28T09:37:46.657Z,19.38
2023-04-28T09:40:54.087Z,19.02
2023-04-28T09:43:54.601Z,18.54
2023-04-28T09:46:54.607Z,18.11
2023-04-28T09:50:10.666Z,18.02
2023-04-28T09:53:10.634Z,18.07
2023-04-28T09:56:11.663Z,18.14
2023-04-28T09:59:14.674Z,18.41
2023-04-28T10:02:41.219Z,18.72
2023-04-28T10:05:37.273Z,18.95
2023-04-28T10:08:50.438Z,19.01
2023-04-28T10:11:57.594Z,19.18
2023-04-28T10:15:05.311Z,19.30
2023-04-28T10:18:06.736Z,19.16
2023-04-28T10:21:08.694Z,18.55
2023-04-28T10:24:10.553Z,18.05
2023-04-28T10:27:11.744Z,17.68
2023-04-28T10:30:34.170Z,17.32
2023-04-28T10:33:39.117Z,17.32
2023-04-28T10:37:03.944Z,17.40
2023-04-28T10:40:23.732Z,17.54
2023-04-28T10:43:26.204Z,17.76
2023-04-28T10:46:26.762Z,17.85
2023-04-28T10:49:26.794Z,17.97
2023-04-28T10:52:49.778Z,18.14
2023-04-28T10:55:54.305Z,18.45
2023-04-28T10:59:01.366Z,18.63
2023-04-28T11:02:01.794Z,18.66
2023-04-28T11:05:24.941Z,18.89
2023-04-28T11:08:39.881Z,19.32
2023-04-28T11:11:44.889Z,19.61
2023-04-28T11:14:45.761Z,19.67
2023-04-28T11:17:50.806Z,19.93
2023-04-28T11:20:50.800Z,20.14
2023-04-28T11:23:50.837Z,20.30
2023-04-28T11:26:50.897Z,20.17
2023-04-28T11:29:53.910Z,19.99
2023-04-28T11:32:54.872Z,20.02
2023-04-28T11:35:54.815Z,20.19
2023-04-28T11:38:57.837Z,20.25
2023-04-28T11:41:57.871Z,20.20
2023-04-28T11:45:03.894Z,20.35
2023-04-28T11:48:04.180Z,20.26
2023-04-28T11:51:03.904Z,20.21
2023-04-28T11:54:06.073Z,20.18
2023-04-28T11:57:05.955Z,20.20
2023-04-28T12:00:05.863Z,20.10
2023-04-28T12:03:06.067Z,19.96
2023-04-28T12:06:05.904Z,19.62
2023-04-28T12:09:12.120Z,19.14
2023-04-28T12:12:12.892Z,18.72
2023-04-28T12:15:22.415Z,18.40
2023-04-28T12:18:44.167Z,18.59
2023-04-28T12:21:43.954Z,18.92
2023-04-28T12:24:49.912Z,18.99
2023-04-28T12:27:50.877Z,18.66
2023-04-28T12:30:53.964Z,18.44
2023-04-28T12:33:54.017Z,18.49
2023-04-28T12:36:54.985Z,18.26
2023-04-28T12:39:55.960Z,18.05
2023-04-28T12:42:56.993Z,17.97
2023-04-28T12:45:57.059Z,17.79
2023-04-28T12:48:59.997Z,17.83
2023-04-28T12:52:00.928Z,17.67
2023-04-28T12:55:01.048Z,17.49
2023-04-28T12:58:00.972Z,17.48
2023-04-28T13:01:01.145Z,17.48
2023-04-28T13:04:01.300Z,17.42
2023-04-28T13:07:04.708Z,17.06
2023-04-28T13:10:06.085Z,16.50
2023-04-28T13:13:06.068Z,15.71
2023-04-28T13:16:07.086Z,15.05
2023-04-28T13:19:07.057Z,14.85
2023-04-28T13:22:07.032Z,14.95
2023-04-28T13:25:06.993Z,15.12
2023-04-28T13:28:07.085Z,15.23
2023-04-28T13:31:07.036Z,15.28
2023-04-28T13:34:11.117Z,15.20
2023-04-28T13:37:11.012Z,15.02
2023-04-28T13:40:12.066Z,14.92
2023-04-28T13:43:12.134Z,14.90
2023-04-28T13:46:14.131Z,14.89
2023-04-28T13:49:14.040Z,14.87
2023-04-28T13:52:14.076Z,14.70
2023-04-28T13:55:14.101Z,14.50
2023-04-28T13:58:14.080Z,14.40
2023-04-28T14:01:14.165Z,14.30
2023-04-28T14:04:14.432Z,14.17
2023-04-28T14:07:16.087Z,14.17
2023-04-28T14:10:18.094Z,14.26
2023-04-28T14:13:18.090Z,14.24
2023-04-28T14:16:18.162Z,14.03
2023-04-28T14:19:19.321Z,13.78
2023-04-28T14:22:19.181Z,13.54
2023-04-28T14:25:19.203Z,13.26
2023-04-28T14:28:20.271Z,12.95
2023-04-28T14:31:21.206Z,12.70
2023-04-28T14:34:21.107Z,12.51
2023-04-28T14:37:21.272Z,12.37
2023-04-28T14:40:21.162Z,12.25
2023-04-28T14:43:21.160Z,12.21
2023-04-28T14:46:21.225Z,12.30
2023-04-28T14:49:21.150Z,12.41
2023-04-28T14:52:22.220Z,12.58
2023-04-28T14:55:22.223Z,12.73
2023-04-28T14:58:23.285Z,12.84
2023-04-28T15:01:23.281Z,12.94
2023-04-28T15:04:23.421Z,12.99
2023-04-28T15:07:23.208Z,12.98
2023-04-28T15:10:26.264Z,12.94
2023-04-28T15:13:26.305Z,12.81
2023-04-28T15:16:26.380Z,12.71
2023-04-28T15:19:26.200Z,12.69
2023-04-28T15:22:26.255Z,12.70
2023-04-28T15:25:26.304Z,12.62
2023-04-28T15:28:26.248Z,12.48
2023-04-28T15:31:26.413Z,12.42
2023-04-28T15:34:26.453Z,12.40
2023-04-28T15:37:53.310Z,12.43
2023-04-28T15:40:55.254Z,12.46
2023-04-28T15:43:56.262Z,12.38
2023-04-28T15:46:58.297Z,12.30
2023-04-28T15:49:58.362Z,12.32
2023-04-28T15:52:59.291Z,12.31
2023-04-28T15:56:03.492Z,12.25
2023-04-28T15:59:03.555Z,12.13
2023-04-28T16:02:03.346Z,12.03
2023-04-28T16:05:05.421Z,12.01
2023-04-28T16:08:06.285Z,11.99
2023-04-28T16:11:06.318Z,11.98
2023-04-28T16:14:06.386Z,11.96
2023-04-28T16:17:07.783Z,11.90
2023-04-28T16:20:08.430Z,11.77
2023-04-28T16:23:08.330Z,11.68
2023-04-28T16:26:08.361Z,11.60
2023-04-28T16:29:08.380Z,11.54
2023-04-28T16:32:08.436Z,11.46
2023-04-28T16:35:12.381Z,11.37
2023-04-28T16:38:15.330Z,11.26
2023-04-28T16:41:15.398Z,11.16
2023-04-28T16:44:15.344Z,11.09
2023-04-28T16:47:15.354Z,11.02
2023-04-28T16:50:16.372Z,10.93
2023-04-28T16:53:17.766Z,10.84
2023-04-28T16:56:17.405Z,10.77
2023-04-28T16:59:17.346Z,10.69
2023-04-28T17:02:17.548Z,10.61
2023-04-28T17:05:17.447Z,10.55
2023-04-28T17:08:20.458Z,10.48
2023-04-28T17:11:20.461Z,10.42
2023-04-28T17:14:20.433Z,10.36
2023-04-28T17:17:20.495Z,10.33
2023-04-28T17:20:23.951Z,10.29
2023-04-28T17:23:27.500Z,10.24
2023-04-28T17:26:31.079Z,10.23
2023-04-28T17:29:37.698Z,10.22
2023-04-28T17:32:38.718Z,10.21
2023-04-28T17:35:38.543Z,10.19
2023-04-28T17:38:38.465Z,10.16
2023-04-28T17:41:39.476Z,10.10
2023-04-28T17:44:40.737Z,10.03
2023-04-28T17:47:40.485Z,9.94
2023-04-28T17:50:40.467Z,9.84
2023-04-28T17:53:40.519Z,9.74
2023-04-28T17:56:40.729Z,9.65
2023-04-28T17:59:44.318Z,9.55
2023-04-28T18:02:44.666Z,9.46
2023-04-28T18:05:44.491Z,9.38
2023-04-28T18:08:44.496Z,9.30
2023-04-28T18:11:44.564Z,9.22
2023-04-28T18:14:44.516Z,9.14
2023-04-28T18:17:44.507Z,9.07
2023-04-28T18:20:45.523Z,9.02
2023-04-28T18:23:45.509Z,8.96
2023-04-28T18:26:45.556Z,8.91
2023-04-28T18:29:45.552Z,8.88
2023-04-28T18:32:48.312Z,8.83
2023-04-28T18:35:50.936Z,8.78
2023-04-28T18:38:53.581Z,8.73
2023-04-28T18:41:53.605Z,8.70
2023-04-28T18:44:55.602Z,8.67
2023-04-28T18:47:56.697Z,8.64
2023-04-28T18:50:57.542Z,8.61
2023-04-28T18:53:59.056Z,8.56
2023-04-28T18:56:59.611Z,8.52
2023-04-28T19:00:00.643Z,8.50
2023-04-28T19:03:01.765Z,8.47
2023-04-28T19:06:01.719Z,8.44
2023-04-28T19:09:01.586Z,8.40
2023-04-28T19:12:02.619Z,8.38
2023-04-28T19:15:02.602Z,8.36
2023-04-28T19:18:03.709Z,8.34
2023-04-28T19:21:03.648Z,8.34
2023-04-28T19:24:03.714Z,8.34
2023-04-28T19:27:03.660Z,8.32
2023-04-28T19:30:03.646Z,8.31
2023-04-28T19:33:04.687Z,8.26
2023-04-28T19:36:05.666Z,8.21
2023-04-28T19:39:09.618Z,8.14
2023-04-28T19:42:10.662Z,8.07
2023-04-28T19:45:10.701Z,7.99
2023-04-28T19:48:10.755Z,7.91
2023-04-28T19:51:10.751Z,7.84
2023-04-28T19:54:10.716Z,7.78
2023-04-28T19:57:12.816Z,7.71
2023-04-28T20:00:13.750Z,7.66
2023-04-28T20:03:14.981Z,7.61
2023-04-28T20:06:15.729Z,7.54
2023-04-28T20:09:16.954Z,7.48
2023-04-28T20:12:16.722Z,7.42
2023-04-28T20:15:16.725Z,7.35
2023-04-28T20:18:16.743Z,7.27
2023-04-28T20:21:16.708Z,7.21
2023-04-28T20:24:17.762Z,7.13
2023-04-28T20:27:17.722Z,7.09
2023-04-28T20:30:18.787Z,7.06
2023-04-28T20:33:18.761Z,7.04
2023-04-28T20:36:18.737Z,7.03
2023-04-28T20:39:18.797Z,7.01
2023-04-28T20:42:18.791Z,6.97
2023-04-28T20:45:18.789Z,6.94
2023-04-28T20:48:18.982Z,6.93
2023-04-28T20:51:19.100Z,6.91
2023-04-28T20:54:18.828Z,6.88
2023-04-28T20:57:18.761Z,6.87
2023-04-28T21:00:18.837Z,6.85
2023-04-28T21:03:21.847Z,6.81
2023-04-28T21:06:21.797Z,6.77
2023-04-28T21:09:24.858Z,6.75
2023-04-28T21:12:24.982Z,6.74
2023-04-28T21:15:24.820Z,6.72
2023-04-28T21:18:24.852Z,6.70
2023-04-28T21:21:24.844Z,6.70
2023-04-28T21:24:24.819Z,6.71
2023-04-28T21:27:24.881Z,6.71
2023-04-28T21:30:25.864Z,6.71
2023-04-28T21:33:25.827Z,6.69
2023-04-28T21:36:26.064Z,6.67
2023-04-28T21:39:25.850Z,6.66
2023-04-28T21:42:25.949Z,6.65
2023-04-28T21:45:27.072Z,6.63
2023-04-28T21:48:26.861Z,6.60
2023-04-28T21:51:26.907Z,6.57
2023-04-28T21:54:26.909Z,6.53
2023-04-28T21:57:26.920Z,6.51
2023-04-28T22:00:28.972Z,6.48
2023-04-28T22:03:29.218Z,6.46
2023-04-28T22:06:29.916Z,6.44
2023-04-28T22:09:29.915Z,6.42
2023-04-28T22:12:29.929Z,6.41
2023-04-28T22:15:29.966Z,6.38
2023-04-28T22:18:29.903Z,6.36
2023-04-28T22:21:30.911Z,6.34
2023-04-28T22:24:30.988Z,6.31
2023-04-28T22:27:30.907Z,6.28
2023-04-28T22:30:31.018Z,6.25
2023-04-28T22:33:31.025Z,6.23
2023-04-28T22:36:30.954Z,6.23
2023-04-28T22:39:30.977Z,6.20
2023-04-28T22:42:32.006Z,6.20
2023-04-28T22:45:31.962Z,6.16
2023-04-28T22:48:31.977Z,6.13
2023-04-28T22:51:31.996Z,6.10
2023-04-28T22:54:32.026Z,6.07
2023-04-28T22:57:32.031Z,6.04
2023-04-28T23:00:31.974Z,6.01
2023-04-28T23:03:32.103Z,5.99
2023-04-28T23:06:32.049Z,5.97
2023-04-28T23:09:33.066Z,5.96
2023-04-28T23:12:33.017Z,5.92
2023-04-28T23:15:33.064Z,5.90
2023-04-28T23:18:33.017Z,5.88
2023-04-28T23:21:34.034Z,5.87
2023-04-28T23:24:34.014Z,5.86
2023-04-28T23:27:34.090Z,5.83
2023-04-28T23:30:34.085Z,5.80
2023-04-28T23:33:35.067Z,5.76
2023-04-28T23:36:35.166Z,5.71
2023-04-28T23:39:36.060Z,5.62
2023-04-28T23:42:36.042Z,5.55
2023-04-28T23:45:36.229Z,5.48
2023-04-28T23:48:38.196Z,5.43
2023-04-28T23:51:38.079Z,5.38
2023-04-28T23:54:38.107Z,5.32
2023-04-28T23:57:38.071Z,5.26
